Time;durP1;ratioP1;P1;durP2;ratioP2;P2;SDS_P1;SDS_P2;PMS_P1;PMS_P2;Temp;Humidity;BMP_temperature;BMP_pressure;BME280_temperature;BME280_humidity;BME280_pressure;Samples;Min_cycle;Max_cycle;Signal;HPM_P1;HPM_P2
2022/05/10 00:01:00;;;;;;;8.80;6.32;;;;;;;15.98;96.28;100988.34;5133154;27;20702;-70
2022/05/10 00:03:36;;;;;;;8.57;6.43;;;;;;;15.93;96.24;100978.84;5134235;27;20113;-69
2022/05/10 00:06:07;;;;;;;7.75;6.60;;;;;;;15.92;96.48;100972.75;5134555;27;20030;-70
2022/05/10 00:08:32;;;;;;;9.30;6.97;;;;;;;15.84;97.07;100960.00;5134074;27;20471;-70
2022/05/10 00:10:58;;;;;;;8.77;6.97;;;;;;;15.80;97.10;100961.28;5134368;27;20027;-70
2022/05/10 00:13:24;;;;;;;6.82;6.18;;;;;;;15.83;97.05;100974.50;5134204;27;20035;-70
2022/05/10 00:15:51;;;;;;;6.65;6.03;;;;;;;15.79;96.20;100965.00;5133954;27;20027;-69
2022/05/10 00:18:17;;;;;;;9.63;6.45;;;;;;;15.77;96.43;100969.72;5134033;27;20026;-69
2022/05/10 00:20:44;;;;;;;8.48;7.10;;;;;;;15.76;96.31;100968.84;5134023;27;20060;-69
2022/05/10 00:23:09;;;;;;;10.05;6.63;;;;;;;15.73;96.58;100963.75;5128706;27;20026;-70
2022/05/10 00:25:35;;;;;;;10.07;6.43;;;;;;;15.67;96.20;100961.66;5133750;27;20023;-67
2022/05/10 00:28:00;;;;;;;8.23;7.18;;;;;;;15.69;96.62;100956.94;5132678;27;20563;-66
2022/05/10 00:30:26;;;;;;;9.98;6.85;;;;;;;15.66;96.16;100954.53;5132661;27;20379;-67
2022/05/10 00:32:52;;;;;;;10.43;7.10;;;;;;;15.64;96.08;100961.13;5132544;27;20728;-67
2022/05/10 00:35:22;;;;;;;7.75;6.95;;;;;;;15.61;96.18;100950.59;5132109;27;20035;-67
2022/05/10 00:37:49;;;;;;;7.80;6.80;;;;;;;15.54;95.79;100953.03;5132220;27;20059;-67
2022/05/10 00:40:19;;;;;;;10.50;7.28;;;;;;;15.52;95.83;100949.66;5132462;27;20482;-67
2022/05/10 00:43:03;;;;;;;9.20;6.78;;;;;;;15.48;96.15;100953.63;5132237;27;20038;-67
2022/05/10 00:45:34;;;;;;;10.25;6.65;;;;;;;15.42;95.87;100948.00;5132142;27;20152;-66
2022/05/10 00:48:22;;;;;;;10.40;7.35;;;;;;;15.38;96.07;100946.59;5132127;27;20423;-67
2022/05/10 00:50:56;;;;;;;8.60;6.97;;;;;;;15.34;95.75;100947.84;5129155;27;20051;-67
2022/05/10 00:53:26;;;;;;;7.38;6.68;;;;;;;15.25;96.25;100943.38;5130640;27;20095;-67
2022/05/10 00:56:09;;;;;;;7.90;6.90;;;;;;;15.24;96.38;100944.34;5131636;27;20025;-67
2022/05/10 00:58:42;;;;;;;8.15;6.97;;;;;;;15.26;95.44;100945.88;5130604;27;20029;-67
2022/05/10 01:01:11;;;;;;;12.27;6.97;;;;;;;15.23;94.88;100946.22;5131933;27;20019;-68
2022/05/10 01:03:43;;;;;;;8.02;6.13;;;;;;;15.27;94.82;100950.31;5130624;27;20690;-66
2022/05/10 01:06:21;;;;;;;10.90;6.15;;;;;;;15.27;93.62;100942.22;5129732;27;20023;-67
2022/05/10 01:09:06;;;;;;;11.30;5.63;;;;;;;15.29;92.55;100947.47;5131717;27;20031;-67
2022/05/10 01:11:38;;;;;;;5.90;5.22;;;;;;;15.29;91.57;100944.75;5128290;27;20027;-67
2022/05/10 01:14:22;;;;;;;9.02;5.20;;;;;;;15.29;91.18;100944.75;5130315;27;20043;-68
2022/05/10 01:16:48;;;;;;;;;;;;;;;15.30;90.43;100952.72;5130426;27;20055;-66
2022/05/10 01:19:14;;;;;;;7.95;5.68;;;;;;;15.34;90.07;100939.75;5131385;27;20383;-67
2022/05/10 01:22:13;;;;;;;7.60;5.32;;;;;;;15.37;89.69;100948.44;5131671;27;20035;-67
2022/05/10 01:24:49;;;;;;;6.38;5.10;;;;;;;15.38;89.24;100949.31;5129040;27;20023;-67
2022/05/10 01:27:23;;;;;;;8.30;5.75;;;;;;;15.42;89.02;100950.72;5130054;27;20035;-67
2022/05/10 01:29:58;;;;;;;6.18;5.57;;;;;;;15.46;88.47;100944.00;5129054;27;20054;-67
2022/05/10 01:35:21;;;;;;;9.77;5.53;;;;;;;15.47;87.42;100937.56;5129823;27;20069;-67
2022/05/10 01:37:52;;;;;;;8.38;5.72;;;;;;;15.47;86.98;100930.31;5130461;27;20455;-66
2022/05/10 01:40:20;;;;;;;11.55;5.13;;;;;;;15.54;86.87;100934.13;5131189;27;20027;-68
2022/05/10 01:42:54;;;;;;;8.93;5.20;;;;;;;15.56;86.31;100933.97;5129776;27;20041;-67
2022/05/10 01:45:33;;;;;;;6.38;5.57;;;;;;;15.60;86.34;100932.66;5131464;27;20023;-67
2022/05/10 01:48:01;;;;;;;8.40;5.82;;;;;;;15.61;85.72;100931.69;5128992;27;21449;-67
2022/05/10 01:50:29;;;;;;;8.93;5.18;;;;;;;15.62;85.38;100936.94;5130610;27;20106;-67
2022/05/10 01:53:07;;;;;;;8.00;5.05;;;;;;;15.60;85.65;100928.09;5130384;27;20045;-68
2022/05/10 01:55:36;;;;;;;6.97;4.97;;;;;;;15.69;85.11;100929.91;5129657;28;20023;-67
2022/05/10 01:58:25;;;;;;;9.90;5.78;;;;;;;15.62;85.19;100914.44;5130646;27;20475;-67
2022/05/10 02:00:58;;;;;;;8.45;5.65;;;;;;;15.68;84.54;100928.19;5131215;27;20023;-67
2022/05/10 02:03:51;;;;;;;10.68;5.63;;;;;;;15.70;84.23;100933.44;5129341;28;20070;-67
2022/05/10 02:06:24;;;;;;;5.60;5.00;;;;;;;15.70;83.43;100918.06;5119011;27;20475;-66
2022/05/10 02:09:11;;;;;;;12.02;5.70;;;;;;;15.69;83.54;100918.22;5133546;27;20055;-67
2022/05/10 02:11:47;;;;;;;10.73;5.55;;;;;;;15.69;83.08;100908.28;5133320;27;20031;-67
2022/05/10 02:14:29;;;;;;;10.02;6.10;;;;;;;15.76;82.82;100924.72;5133643;27;20031;-66
2022/05/10 02:17:03;;;;;;;7.22;5.68;;;;;;;15.79;82.66;100924.41;5135192;27;20023;-67
2022/05/10 02:19:38;;;;;;;8.35;5.82;;;;;;;15.77;82.43;100927.28;5131884;27;20034;-66
2022/05/10 02:22:12;;;;;;;8.48;6.00;;;;;;;15.74;82.38;100911.34;5134836;27;20031;-66
2022/05/10 02:24:56;;;;;;;10.37;5.70;;;;;;;15.78;82.22;100918.19;5134820;27;20518;-67
2022/05/10 02:27:46;;;;;;;8.50;6.43;;;;;;;15.77;82.11;100915.63;5134742;27;20359;-67
2022/05/10 02:30:19;;;;;;;8.85;6.07;;;;;;;15.77;82.17;100918.34;5133221;27;20035;-67
2022/05/10 02:33:08;;;;;;;11.18;5.90;;;;;;;15.75;81.92;100913.06;5134640;27;20460;-67
2022/05/10 02:35:42;;;;;;;10.32;6.35;;;;;;;15.77;82.35;100919.16;5134433;27;20019;-67
2022/05/10 02:38:11;;;;;;;9.40;6.65;;;;;;;15.74;82.28;100916.75;5134703;27;20479;-67
2022/05/10 02:40:41;;;;;;;9.50;5.57;;;;;;;15.76;82.55;100913.91;5134479;27;20027;-67
2022/05/10 02:43:12;;;;;;;7.43;5.90;;;;;;;15.76;82.46;100919.31;5134486;27;20023;-67
2022/05/10 02:45:39;;;;;;;9.30;6.00;;;;;;;15.72;82.10;100913.38;5134963;27;20027;-67
2022/05/10 02:48:11;;;;;;;8.30;5.75;;;;;;;15.68;81.69;100906.53;5132964;27;20035;-66
2022/05/10 02:50:37;;;;;;;7.85;5.88;;;;;;;15.70;82.30;100906.41;5134322;27;20038;-67
2022/05/10 02:53:02;;;;;;;7.47;6.07;;;;;;;15.74;81.83;100905.94;5134383;27;20035;-66
2022/05/10 02:55:37;;;;;;;9.63;5.75;;;;;;;15.67;81.45;100904.84;5134236;27;20031;-67
2022/05/10 02:58:11;;;;;;;6.93;6.05;;;;;;;15.68;81.66;100905.72;5134034;27;20019;-66
2022/05/10 03:00:37;;;;;;;14.07;5.95;;;;;;;15.70;81.51;100915.38;5133869;27;20079;-67
2022/05/10 03:03:09;;;;;;;8.40;6.28;;;;;;;15.68;81.67;100914.66;5134178;27;20035;-67
2022/05/10 03:05:34;;;;;;;8.93;6.63;;;;;;;15.64;81.92;100902.44;5133857;27;20109;-67
2022/05/10 03:08:00;;;;;;;8.40;6.18;;;;;;;15.69;82.32;100908.28;5134061;27;20119;-68
2022/05/10 03:10:25;;;;;;;9.00;6.07;;;;;;;15.67;82.34;100910.25;5133760;27;20038;-66
2022/05/10 03:12:51;;;;;;;8.80;5.82;;;;;;;15.64;82.14;100913.28;5133744;27;20059;-67
2022/05/10 03:15:16;;;;;;;7.03;5.53;;;;;;;15.68;82.14;100922.78;5133808;27;20035;-67
2022/05/10 03:17:42;;;;;;;8.98;6.28;;;;;;;15.68;82.64;100922.78;5133901;27;20019;-67
2022/05/10 03:20:08;;;;;;;10.85;6.47;;;;;;;15.67;82.51;100929.19;5132876;27;20371;-68
2022/05/10 03:22:33;;;;;;;11.55;6.63;;;;;;;15.66;82.49;100924.81;5133810;27;20061;-67
2022/05/10 03:24:59;;;;;;;8.48;6.30;;;;;;;15.54;81.91;100917.91;5130025;27;20118;-67
2022/05/10 03:27:24;;;;;;;9.05;6.30;;;;;;;15.59;82.29;100925.56;5132397;27;20019;-67
2022/05/10 03:29:50;;;;;;;7.88;6.22;;;;;;;15.65;82.29;100935.75;5133675;27;20027;-66
2022/05/10 03:32:16;;;;;;;7.78;6.38;;;;;;;15.64;82.96;100937.59;5133610;27;20035;-66
2022/05/10 03:34:54;;;;;;;11.68;6.47;;;;;;;15.60;81.94;100941.63;5133677;27;20038;-66
2022/05/10 03:37:21;;;;;;;8.10;6.00;;;;;;;15.61;81.34;100948.72;5132090;27;20032;-67
2022/05/10 03:39:46;;;;;;;12.20;6.05;;;;;;;15.62;81.79;100950.44;5133312;27;20079;-67
2022/05/10 03:42:11;;;;;;;8.05;6.07;;;;;;;15.60;82.04;100935.34;5133599;27;20019;-66
2022/05/10 03:44:37;;;;;;;10.20;6.43;;;;;;;15.59;82.04;100939.94;5133399;27;20046;-65
2022/05/10 03:47:05;;;;;;;9.45;6.43;;;;;;;15.61;82.73;100945.19;5133119;27;20046;-67
2022/05/10 03:49:31;;;;;;;9.43;6.15;;;;;;;15.60;82.85;100940.75;5133302;27;20027;-66
2022/05/10 03:51:57;;;;;;;7.15;6.25;;;;;;;15.61;83.00;100946.03;5133366;27;20055;-67
2022/05/10 03:54:23;;;;;;;10.05;6.05;;;;;;;15.62;82.66;100946.88;5132038;27;20019;-67
2022/05/10 03:56:50;;;;;;;10.93;6.43;;;;;;;15.61;82.66;100946.03;5131379;27;20537;-66
2022/05/10 03:59:16;;;;;;;8.40;6.43;;;;;;;15.57;81.70;100941.94;5132956;27;20034;-66
2022/05/10 04:01:42;;;;;;;7.65;5.97;;;;;;;15.63;81.81;100946.72;5133048;27;20037;-66
2022/05/10 04:04:08;;;;;;;10.32;5.78;;;;;;;15.59;81.42;100942.63;5131494;27;20111;-67
2022/05/10 04:06:33;;;;;;;6.22;5.63;;;;;;;15.63;81.17;100946.72;5132815;27;20069;-67
2022/05/10 04:08:59;;;;;;;10.30;5.80;;;;;;;15.63;80.87;100949.44;5131353;27;20111;-67
2022/05/10 04:11:24;;;;;;;10.20;5.78;;;;;;;15.64;81.42;100950.31;5132597;27;20054;-67
2022/05/10 04:13:50;;;;;;;14.23;6.20;;;;;;;15.63;81.07;100949.44;5132488;27;20033;-67
2022/05/10 04:16:16;;;;;;;9.18;6.05;;;;;;;15.64;80.80;100956.53;5132696;27;20042;-66
2022/05/10 04:18:42;;;;;;;12.68;6.25;;;;;;;15.62;80.77;100942.34;5132783;27;20023;-66
2022/05/10 04:21:08;;;;;;;7.07;5.63;;;;;;;15.54;80.91;100931.41;5131117;27;20091;-67
2022/05/10 04:23:34;;;;;;;11.73;6.65;;;;;;;15.64;81.65;100961.13;5132389;27;20027;-66
2022/05/10 04:26:08;;;;;;;10.15;6.00;;;;;;;15.57;81.78;100944.63;5130954;27;20121;-67
2022/05/10 04:28:35;;;;;;;10.07;5.57;;;;;;;15.60;81.90;100955.16;5132213;27;20019;-67
2022/05/10 04:31:00;;;;;;;7.60;6.15;;;;;;;15.56;81.63;100947.47;5132181;27;20083;-66
2022/05/10 04:33:26;;;;;;;9.95;5.65;;;;;;;15.51;81.84;100947.94;5128523;27;20047;-65
2022/05/10 04:35:52;;;;;;;7.50;6.00;;;;;;;15.49;81.88;100947.25;5130890;27;20023;-66
2022/05/10 04:38:18;;;;;;;8.32;5.78;;;;;;;15.66;81.86;100972.63;5131593;27;20057;-66
2022/05/10 04:43:30;;;;;;;9.07;6.00;;;;;;;15.67;81.82;100974.31;5130800;27;20627;-66
2022/05/10 04:45:55;;;;;;;10.85;6.20;;;;;;;15.58;82.52;100957.13;5131777;27;20027;-66
2022/05/10 04:48:21;;;;;;;8.98;5.93;;;;;;;15.70;81.68;100976.72;5131685;27;20049;-66
2022/05/10 04:50:48;;;;;;;10.15;5.75;;;;;;;15.68;82.17;100967.91;5131565;27;20100;-67
2022/05/10 04:53:14;;;;;;;7.07;5.47;;;;;;;15.76;82.88;100982.38;5131686;27;20035;-67
2022/05/10 04:55:39;;;;;;;9.38;6.10;;;;;;;15.68;81.06;100968.75;5131423;27;20367;-67
2022/05/10 04:58:05;;;;;;;9.82;5.70;;;;;;;15.67;81.19;100964.34;5131557;27;20029;-67
2022/05/10 05:00:31;;;;;;;7.55;5.82;;;;;;;15.78;81.15;100983.09;5130560;27;20110;-66
2022/05/10 05:02:56;;;;;;;7.68;5.65;;;;;;;15.81;81.01;100974.66;5130665;27;20041;-66
2022/05/10 05:05:22;;;;;;;10.80;5.70;;;;;;;15.75;81.21;100967.16;5130168;27;20038;-67
2022/05/10 05:07:48;;;;;;;12.10;6.30;;;;;;;15.77;80.69;100970.56;5129235;27;20031;-66
2022/05/10 05:10:13;;;;;;;13.40;6.32;;;;;;;15.82;80.07;100973.66;5130464;27;20104;-67
2022/05/10 05:12:39;;;;;;;8.25;6.30;;;;;;;15.91;79.97;100988.13;5132358;27;20110;-69
2022/05/10 05:15:07;;;;;;;8.07;5.88;;;;;;;15.94;80.30;100994.06;5132184;27;20441;-70
2022/05/10 05:17:33;;;;;;;10.25;6.20;;;;;;;15.97;80.35;100987.53;5132626;27;20106;-71
2022/05/10 05:19:58;;;;;;;6.97;5.65;;;;;;;15.93;79.67;100981.56;5131177;27;20026;-69
2022/05/10 05:22:25;;;;;;;7.82;6.03;;;;;;;16.03;79.97;100988.75;5132616;27;20056;-69
2022/05/10 05:24:51;;;;;;;10.15;6.38;;;;;;;16.06;81.07;100994.72;5128527;27;20050;-70
2022/05/10 05:27:16;;;;;;;8.65;5.82;;;;;;;16.10;80.06;100987.13;5131440;27;20019;-70
2022/05/10 05:29:41;;;;;;;10.02;6.15;;;;;;;16.13;79.68;100990.41;5131154;27;20027;-71
2022/05/10 05:32:10;;;;;;;10.75;5.80;;;;;;;16.19;80.10;100989.78;5129871;27;20027;-70
2022/05/10 05:34:36;;;;;;;6.95;5.55;;;;;;;16.21;79.28;100993.16;5130988;27;20395;-70
2022/05/10 05:39:47;;;;;;;7.22;5.63;;;;;;;16.30;78.30;100994.09;5131018;27;20533;-70
2022/05/10 05:42:12;;;;;;;9.73;5.55;;;;;;;16.31;78.09;100982.28;5130514;27;20035;-71
2022/05/10 05:44:38;;;;;;;9.10;5.30;;;;;;;16.41;78.24;100991.19;5131170;27;20064;-71
2022/05/10 05:47:03;;;;;;;10.13;5.63;;;;;;;16.47;77.41;100990.59;5131371;27;20027;-70
2022/05/10 05:49:29;;;;;;;8.18;5.95;;;;;;;16.53;76.78;100984.53;5131345;27;20098;-69
2022/05/10 05:51:59;;;;;;;9.02;5.07;;;;;;;16.56;76.22;100985.06;5129776;28;20032;-70
2022/05/10 05:54:24;;;;;;;6.45;5.50;;;;;;;16.67;76.07;100992.94;5130075;28;20031;-69
2022/05/10 05:56:50;;;;;;;11.05;5.68;;;;;;;16.74;75.52;100987.75;5131365;27;20034;-69
2022/05/10 05:59:17;;;;;;;9.52;6.53;;;;;;;16.81;75.50;100991.53;5131418;27;20023;-70
2022/05/10 06:01:42;;;;;;;10.00;5.60;;;;;;;16.87;74.08;100988.19;5131518;27;20031;-71
2022/05/10 06:04:08;;;;;;;8.80;5.53;;;;;;;16.90;73.70;100979.75;5129848;28;20042;-70
2022/05/10 06:06:33;;;;;;;8.35;5.20;;;;;;;16.99;73.02;100987.75;5131035;27;20041;-70
2022/05/10 06:08:58;;;;;;;9.85;5.10;;;;;;;17.09;72.76;100993.09;5129903;27;20031;-70
2022/05/10 06:11:24;;;;;;;6.72;5.53;;;;;;;17.16;71.55;100994.16;5131496;27;20033;-70
2022/05/10 06:13:49;;;;;;;7.03;5.05;;;;;;;17.36;71.97;100987.47;5131380;27;20109;-70
2022/05/10 06:16:15;;;;;;;7.13;5.20;;;;;;;17.56;71.60;100991.66;5129839;27;20054;-69
2022/05/10 06:18:42;;;;;;;7.95;5.07;;;;;;;17.78;69.54;100991.09;5131160;27;20458;-70
2022/05/10 06:21:07;;;;;;;9.65;4.60;;;;;;;17.92;68.83;100982.28;5131835;27;20080;-70
2022/05/10 06:23:33;;;;;;;5.78;5.07;;;;;;;18.08;67.95;100991.34;5131915;27;20035;-70
2022/05/10 06:25:58;;;;;;;6.05;5.15;;;;;;;18.08;67.93;100987.75;5131479;27;20023;-69
2022/05/10 06:28:23;;;;;;;9.57;5.47;;;;;;;18.20;68.23;101001.88;5131036;27;20031;-69
2022/05/10 06:30:49;;;;;;;9.40;4.90;;;;;;;18.20;67.33;100989.16;5132123;27;20110;-70
2022/05/10 06:33:16;;;;;;;6.82;5.13;;;;;;;18.26;67.34;101003.94;5132452;27;20031;-70
2022/05/10 06:35:43;;;;;;;14.63;5.63;;;;;;;18.25;66.75;100997.63;5130942;27;20076;-70
2022/05/10 06:38:19;;;;;;;7.72;4.88;;;;;;;18.17;67.13;100986.78;5129517;28;20498;-70
2022/05/10 06:40:47;;;;;;;5.88;5.13;;;;;;;18.23;66.52;101006.97;5132373;27;20033;-70
2022/05/10 06:43:13;;;;;;;8.80;4.78;;;;;;;18.24;65.93;100995.94;5124397;28;20391;-69
2022/05/10 06:45:41;;;;;;;8.52;4.90;;;;;;;18.21;66.49;100996.28;5132623;27;20102;-70
2022/05/10 06:48:07;;;;;;;7.03;5.28;;;;;;;18.25;66.41;100996.81;5132258;27;20382;-70
2022/05/10 06:50:32;;;;;;;7.38;5.18;;;;;;;18.28;66.95;101010.88;5132021;27;20027;-68
2022/05/10 06:52:59;;;;;;;7.80;4.95;;;;;;;18.31;65.48;101012.44;5131144;28;20483;-69
2022/05/10 06:55:26;;;;;;;7.95;5.25;;;;;;;18.26;65.83;101002.06;5133867;27;20038;-70
2022/05/10 06:57:52;;;;;;;7.90;5.22;;;;;;;18.30;66.20;101006.16;5135696;27;20023;-70
2022/05/10 07:00:18;;;;;;;9.15;5.63;;;;;;;18.32;66.47;101011.41;5134499;27;20117;-70
2022/05/10 07:02:45;;;;;;;7.68;5.28;;;;;;;18.32;67.61;101006.84;5135687;27;20471;-69
2022/05/10 07:05:12;;;;;;;9.07;5.95;;;;;;;18.40;67.55;101015.00;5135412;27;20023;-70
2022/05/10 07:07:38;;;;;;;8.95;5.38;;;;;;;18.42;67.10;101006.69;5134304;27;20023;-70
2022/05/10 07:10:08;;;;;;;8.88;5.88;;;;;;;18.46;66.55;101003.47;5135764;27;20038;-69
2022/05/10 07:12:38;;;;;;;8.05;5.32;;;;;;;18.43;66.16;100998.38;5135497;27;20058;-69
2022/05/10 07:15:05;;;;;;;9.00;5.50;;;;;;;18.52;66.02;101007.38;5134991;27;20103;-66
2022/05/10 07:17:31;;;;;;;10.18;5.32;;;;;;;18.49;65.52;101003.16;5114187;27;20037;-66
2022/05/10 07:19:56;;;;;;;8.13;5.30;;;;;;;18.52;65.97;101005.53;5132625;27;20110;-66
2022/05/10 07:22:22;;;;;;;6.80;5.10;;;;;;;18.54;65.92;100997.22;5132955;27;20045;-67
2022/05/10 07:24:47;;;;;;;7.88;5.20;;;;;;;18.58;65.60;101004.00;5132346;27;20039;-67
2022/05/10 07:27:13;;;;;;;7.25;4.30;;;;;;;18.61;64.85;101007.22;5132631;27;20011;-68
2022/05/10 07:29:38;;;;;;;5.85;5.13;;;;;;;18.59;64.57;101002.97;5132333;27;20063;-66
2022/05/10 07:32:08;;;;;;;7.70;5.28;;;;;;;18.62;64.96;100995.34;5131058;27;20125;-67
2022/05/10 07:34:33;;;;;;;7.50;5.03;;;;;;;18.66;65.56;101004.84;5132456;27;20054;-67
2022/05/10 07:36:58;;;;;;;6.13;4.70;;;;;;;18.69;65.20;101009.94;5131936;27;20059;-67
2022/05/10 07:39:24;;;;;;;5.38;4.32;;;;;;;18.72;65.58;101004.16;5132515;27;20023;-66
2022/05/10 07:41:51;;;;;;;7.80;4.68;;;;;;;18.79;65.83;100999.75;5132074;27;20023;-66
2022/05/10 07:44:16;;;;;;;5.65;4.38;;;;;;;18.86;65.27;100991.75;5132316;27;20030;-67
2022/05/10 07:46:42;;;;;;;5.65;4.75;;;;;;;18.81;63.30;100978.69;5132055;27;20023;-66
2022/05/10 07:49:09;;;;;;;7.65;5.18;;;;;;;18.88;63.03;100993.28;5131886;27;20015;-67
2022/05/10 07:51:34;;;;;;;5.10;4.60;;;;;;;18.90;63.48;100987.69;5131804;27;20055;-66
2022/05/10 07:54:00;;;;;;;6.47;4.97;;;;;;;19.00;62.97;101008.22;5129466;27;20029;-66
2022/05/10 07:56:25;;;;;;;7.10;4.68;;;;;;;18.97;63.05;100978.66;5130351;27;20486;-66
2022/05/10 07:58:53;;;;;;;7.72;4.38;;;;;;;19.21;63.51;100996.78;5131960;27;20043;-66
2022/05/10 08:01:19;;;;;;;5.15;4.65;;;;;;;19.33;63.81;101007.19;5131925;27;20022;-66
2022/05/10 08:03:46;;;;;;;6.88;4.25;;;;;;;19.46;63.83;101003.91;5131680;27;20070;-67
2022/05/10 08:06:11;;;;;;;5.22;4.57;;;;;;;19.56;64.52;100999.09;5131403;27;20023;-67
2022/05/10 08:08:37;;;;;;;5.05;3.85;;;;;;;19.69;63.53;101000.25;5131413;27;20053;-66
2022/05/10 08:11:04;;;;;;;8.82;4.72;;;;;;;19.85;62.70;101012.91;5130458;27;20058;-66
2022/05/10 08:13:31;;;;;;;8.20;4.90;;;;;;;19.95;61.63;101008.97;5130151;27;20022;-66
2022/05/10 08:15:58;;;;;;;7.15;4.93;;;;;;;19.99;60.42;101006.72;5130049;27;20379;-67
2022/05/10 08:18:25;;;;;;;5.70;4.00;;;;;;;20.10;60.20;101009.91;5131697;27;20051;-66
2022/05/10 08:20:52;;;;;;;6.78;4.95;;;;;;;20.15;58.86;101012.97;5131450;27;20031;-67
2022/05/10 08:23:23;;;;;;;11.05;4.60;;;;;;;20.23;58.63;101011.22;5131322;27;20450;-67
2022/05/10 08:25:54;;;;;;;7.22;4.85;;;;;;;20.23;59.06;101003.03;5131890;27;20102;-67
2022/05/10 08:28:20;;;;;;;6.32;5.18;;;;;;;20.36;59.78;101011.47;5131539;27;20023;-67
2022/05/10 08:30:46;;;;;;;7.93;4.70;;;;;;;20.42;59.40;101008.88;5130949;27;20110;-66
2022/05/10 08:33:18;;;;;;;7.65;5.00;;;;;;;20.49;58.50;101009.00;5131480;27;20035;-66
2022/05/10 08:35:44;;;;;;;8.55;5.45;;;;;;;20.68;59.42;101003.91;5130916;27;20026;-67
2022/05/10 08:38:09;;;;;;;7.38;5.13;;;;;;;20.84;60.64;101005.63;5131221;27;20436;-67
2022/05/10 08:40:40;;;;;;;7.88;5.22;;;;;;;20.97;60.25;100995.84;5131170;27;20031;-66
2022/05/10 08:43:16;;;;;;;7.13;5.45;;;;;;;21.14;60.08;100993.78;5131135;27;20035;-67
2022/05/10 08:45:45;;;;;;;5.55;4.95;;;;;;;21.33;58.84;101001.41;5131420;27;20468;-67
2022/05/10 08:48:10;;;;;;;5.80;4.35;;;;;;;21.39;58.55;100982.44;5131199;27;20180;-67
2022/05/10 08:50:37;;;;;;;8.25;5.50;;;;;;;21.60;57.77;100992.59;5130730;27;20110;-66
2022/05/10 08:53:04;;;;;;;9.18;5.30;;;;;;;21.75;57.48;100996.16;5131021;27;20023;-67
2022/05/10 08:55:33;;;;;;;16.73;6.18;;;;;;;21.90;57.30;100991.53;5130844;27;20034;-68
2022/05/10 08:58:04;;;;;;;14.52;5.53;;;;;;;21.98;56.50;100986.81;5130636;27;20489;-67
2022/05/10 09:00:55;;;;;;;5.93;4.28;;;;;;;22.08;55.53;100983.75;5130812;27;20031;-66
2022/05/10 09:03:38;;;;;;;6.13;4.13;;;;;;;22.23;54.50;100990.03;5130916;27;20394;-67
2022/05/10 09:06:34;;;;;;;5.25;4.15;;;;;;;22.32;54.25;100986.16;5130758;27;20027;-67
2022/05/10 09:09:28;;;;;;;8.07;4.40;;;;;;;22.44;53.77;100990.03;5128823;27;20379;-68
2022/05/10 09:12:18;;;;;;;4.32;3.63;;;;;;;22.56;51.77;100985.78;5129338;27;20038;-67
2022/05/10 09:15:06;;;;;;;7.72;3.60;;;;;;;22.66;50.26;100982.75;5130438;27;20035;-67
2022/05/10 09:17:36;;;;;;;4.97;3.47;;;;;;;22.68;50.46;100977.91;5127951;27;20030;-67
2022/05/10 09:20:04;;;;;;;8.85;3.88;;;;;;;22.69;49.89;100974.97;5131107;27;20479;-68
2022/05/10 09:22:38;;;;;;;4.70;3.63;;;;;;;22.85;48.94;100979.31;5128871;27;20106;-68
2022/05/10 09:25:33;;;;;;;7.15;3.65;;;;;;;22.93;48.42;100984.66;5129491;27;20031;-67
2022/05/10 09:28:13;;;;;;;4.80;3.33;;;;;;;22.93;47.40;100976.44;5130275;27;20054;-67
2022/05/10 09:30:38;;;;;;;4.15;3.20;;;;;;;22.98;47.67;100977.53;5127930;27;20042;-67
2022/05/10 09:36:00;;;;;;;4.55;3.33;;;;;;;23.18;49.09;100984.00;5124207;27;20037;-67
2022/05/10 09:38:26;;;;;;;3.80;3.40;;;;;;;23.22;47.34;100970.75;5126073;27;20472;-67
2022/05/10 09:40:52;;;;;;;4.20;2.92;;;;;;;23.34;46.67;100974.66;5130047;27;20026;-68
2022/05/10 09:43:31;;;;;;;6.93;3.50;;;;;;;23.33;46.59;100968.34;5129904;27;20042;-68
2022/05/10 09:46:03;;;;;;;5.00;3.28;;;;;;;;;;5129720;27;20464;-67
2022/05/10 09:48:30;;;;;;;5.85;3.60;;;;;;;;;;5130016;27;20501;-68
2022/05/10 09:50:55;;;;;;;4.40;3.33;;;;;;;23.50;45.76;100966.97;5129256;27;20043;-67
2022/05/10 09:53:27;;;;;;;3.75;3.13;;;;;;;23.55;45.77;100969.94;5130094;27;20136;-67
2022/05/10 09:56:02;;;;;;;3.33;2.70;;;;;;;23.61;45.70;100965.56;5128712;28;20035;-68
2022/05/10 09:58:35;;;;;;;4.05;3.05;;;;;;;23.67;44.74;100964.75;5130009;27;20134;-68
2022/05/10 10:01:04;;;;;;;4.72;3.58;;;;;;;23.73;45.00;100961.19;5129946;27;20463;-67
2022/05/10 10:03:33;;;;;;;5.18;3.03;;;;;;;23.73;43.85;100956.53;5130079;27;20113;-67
2022/05/10 10:06:18;;;;;;;6.18;2.85;;;;;;;23.76;43.74;100953.38;5129839;27;20038;-68
2022/05/10 10:08:47;;;;;;;3.83;2.70;;;;;;;23.81;43.49;100947.31;5129673;27;20044;-67
2022/05/10 10:11:21;;;;;;;4.72;2.70;;;;;;;23.92;43.46;100949.44;5128554;28;20512;-67
2022/05/10 10:13:54;;;;;;;6.30;3.30;;;;;;;23.98;42.27;100951.38;5129512;27;20050;-68
2022/05/10 10:16:26;;;;;;;3.85;2.70;;;;;;;24.04;41.32;100945.09;5130495;27;20019;-68
2022/05/10 10:19:02;;;;;;;3.60;2.45;;;;;;;24.11;40.64;100944.06;5130357;27;20604;-68
2022/05/10 10:21:34;;;;;;;4.88;3.00;;;;;;;24.05;40.37;100925.69;5130537;27;20019;-68
2022/05/10 10:24:00;;;;;;;4.93;2.65;;;;;;;24.24;41.35;100945.97;5130352;27;20019;-68
2022/05/10 10:26:46;;;;;;;6.25;2.97;;;;;;;24.27;41.52;100940.94;5130539;27;20061;-67
2022/05/10 10:29:26;;;;;;;2.97;2.35;;;;;;;24.26;41.37;100921.94;5131769;27;20035;-67
2022/05/10 10:32:41;;;;;;;2.78;2.22;;;;;;;24.35;41.25;100940.72;5134363;27;20091;-67
2022/05/10 10:35:12;;;;;;;3.50;2.38;;;;;;;24.38;40.77;100934.81;5132764;27;20038;-66
2022/05/10 10:37:41;;;;;;;4.38;2.50;;;;;;;24.38;40.64;100929.34;5134188;27;20557;-67
2022/05/10 10:40:30;;;;;;;3.10;2.38;;;;;;;24.38;40.97;100923.84;5134070;27;20027;-67
2022/05/10 10:43:02;;;;;;;6.32;2.33;;;;;;;24.40;41.15;100920.91;5133250;27;20121;-70
2022/05/10 10:45:40;;;;;;;3.05;2.28;;;;;;;24.31;40.17;100897.47;5136212;27;20097;-70
2022/05/10 10:48:27;;;;;;;3.80;2.50;;;;;;;24.44;39.49;100916.72;5134701;27;20034;-70
2022/05/10 10:50:54;;;;;;;5.53;2.55;;;;;;;24.38;39.11;100912.88;5135151;27;20199;-70
2022/05/10 10:53:22;;;;;;;5.70;2.60;;;;;;;24.29;39.42;100900.44;5135563;27;20027;-71
2022/05/10 10:56:08;;;;;;;3.38;2.25;;;;;;;24.27;39.03;100916.25;5135585;27;20399;-69
2022/05/10 10:59:26;;;;;;;4.22;2.33;;;;;;;24.27;39.57;100909.91;5134389;27;20511;-71
2022/05/10 11:01:51;;;;;;;6.65;2.88;;;;;;;24.25;39.50;100914.78;5116859;27;20054;-70
2022/05/10 11:04:22;;;;;;;4.18;2.75;;;;;;;24.20;39.65;100903.59;5135245;27;20031;-70
2022/05/10 11:06:53;;;;;;;6.88;2.08;;;;;;;24.24;40.53;100900.22;5135432;27;20069;-69
2022/05/10 11:09:33;;;;;;;3.00;2.25;;;;;;;24.25;40.20;100895.59;5135194;27;20812;-70
2022/05/10 11:12:24;;;;;;;2.67;1.98;;;;;;;24.20;38.36;100898.09;5132926;27;20027;-70
2022/05/10 11:15:23;;;;;;;3.25;2.00;;;;;;;24.20;38.17;100888.00;5132792;27;20029;-71
2022/05/10 11:18:12;;;;;;;3.72;2.33;;;;;;;24.28;38.86;100893.25;5133145;27;20347;-74
2022/05/10 11:21:22;;;;;;;4.80;2.85;;;;;;;24.31;39.48;100890.09;5133731;27;20033;-71
2022/05/10 11:24:13;;;;;;;2.30;2.10;;;;;;;24.28;39.80;100881.47;5114142;27;20044;-71
2022/05/10 11:26:57;;;;;;;3.03;2.70;;;;;;;24.38;40.37;100888.19;5134831;27;20082;-71
2022/05/10 11:29:55;;;;;;;3.65;2.80;;;;;;;24.41;40.39;100881.47;5135136;27;20034;-70
2022/05/10 11:32:49;;;;;;;2.03;1.83;;;;;;;24.45;40.28;100871.75;5130327;27;20035;-69
2022/05/10 11:35:17;;;;;;;3.17;2.15;;;;;;;24.48;40.29;100874.91;5132725;27;20403;-70
2022/05/10 11:38:08;;;;;;;4.00;2.42;;;;;;;24.50;40.44;100874.69;5132486;27;20065;-69
2022/05/10 11:41:03;;;;;;;2.75;2.47;;;;;;;24.53;40.25;100854.25;5090617;27;20038;-71
2022/05/10 11:44:08;;;;;;;4.18;2.42;;;;;;;24.48;39.66;100865.84;5134230;27;20034;-71
2022/05/10 11:46:49;;;;;;;5.50;2.53;;;;;;;24.48;40.44;100851.28;5131566;27;20283;-70
2022/05/10 11:49:36;;;;;;;3.72;2.47;;;;;;;24.48;40.46;100843.91;5134393;27;20034;-70
2022/05/10 11:52:10;;;;;;;4.03;2.67;;;;;;;24.49;40.30;100831.88;5130747;27;20043;-66
2022/05/10 11:54:59;;;;;;;3.83;2.28;;;;;;;24.48;40.32;100833.75;5133003;27;20050;-69